createdAt,value
2022-07-31T00:01:04.571Z,3.80
2022-07-31T00:03:33.197Z,4.03
2022-07-31T00:06:01.873Z,4.30
2022-07-31T00:08:30.503Z,4.65
2022-07-31T00:10:59.164Z,4.07
2022-07-31T00:13:56.765Z,4.10
2022-07-31T00:16:17.989Z,4.15
2022-07-31T00:18:46.566Z,4.43
2022-07-31T00:21:15.255Z,3.85
2022-07-31T00:23:43.859Z,4.38
2022-07-31T00:26:12.510Z,4.50
2022-07-31T00:28:41.136Z,4.07
2022-07-31T00:31:09.864Z,3.85
2022-07-31T00:33:40.921Z,4.00
2022-07-31T00:36:09.679Z,4.05
2022-07-31T00:38:38.423Z,3.88
2022-07-31T00:41:07.083Z,4.20
2022-07-31T00:43:36.153Z,4.70
2022-07-31T00:46:04.800Z,3.50
2022-07-31T00:48:33.370Z,4.32
2022-07-31T00:51:03.968Z,4.28
2022-07-31T00:53:32.612Z,4.28
2022-07-31T00:56:01.308Z,3.42
2022-07-31T00:58:29.986Z,3.80
2022-07-31T01:00:58.649Z,3.50
2022-07-31T01:03:27.380Z,4.10
2022-07-31T01:05:56.001Z,3.83
2022-07-31T01:08:25.984Z,3.42
2022-07-31T01:10:58.077Z,3.53
2022-07-31T01:13:31.146Z,4.10
2022-07-31T01:16:01.797Z,3.90
2022-07-31T01:18:32.534Z,3.60
2022-07-31T01:21:04.449Z,3.53
2022-07-31T01:23:54.874Z,3.63
2022-07-31T01:26:49.546Z,3.33
2022-07-31T01:29:24.011Z,3.85
2022-07-31T01:31:55.474Z,3.60
2022-07-31T01:34:27.787Z,3.60
2022-07-31T01:37:02.694Z,3.40
2022-07-31T01:39:34.882Z,3.20
2022-07-31T01:42:05.885Z,3.42
2022-07-31T01:44:40.535Z,3.25
2022-07-31T01:47:09.839Z,3.08
2022-07-31T01:49:39.532Z,3.35
2022-07-31T01:52:09.057Z,3.55
2022-07-31T01:54:38.527Z,3.40
2022-07-31T01:57:08.105Z,3.25
2022-07-31T01:59:44.834Z,3.25
2022-07-31T02:02:36.371Z,3.70
2022-07-31T02:05:12.661Z,3.70
2022-07-31T02:07:42.418Z,3.13
2022-07-31T02:10:12.632Z,3.40
2022-07-31T02:12:42.972Z,3.55
2022-07-31T02:15:14.220Z,3.40
2022-07-31T02:17:46.493Z,3.30
2022-07-31T02:20:35.503Z,3.30
2022-07-31T02:23:04.374Z,3.30
2022-07-31T02:25:35.241Z,3.25
2022-07-31T02:28:07.787Z,3.00
2022-07-31T02:30:39.909Z,3.63
2022-07-31T02:33:11.942Z,3.30
2022-07-31T02:35:45.173Z,3.00
2022-07-31T02:38:22.145Z,3.90
2022-07-31T02:40:53.649Z,3.13
2022-07-31T02:43:22.835Z,3.00
2022-07-31T02:45:53.493Z,3.50
2022-07-31T02:48:23.107Z,3.03
2022-07-31T02:50:53.280Z,3.30
2022-07-31T02:53:22.798Z,3.10
2022-07-31T02:55:54.851Z,3.20
2022-07-31T02:58:23.825Z,3.25
2022-07-31T03:01:01.486Z,3.20
2022-07-31T03:03:31.760Z,3.42
2022-07-31T03:06:00.448Z,3.40
2022-07-31T03:08:29.271Z,3.60
2022-07-31T03:11:05.158Z,3.63
2022-07-31T03:13:35.783Z,3.65
2022-07-31T03:16:06.149Z,3.80
2022-07-31T03:18:35.896Z,3.10
2022-07-31T03:21:04.690Z,2.88
2022-07-31T03:23:36.535Z,3.00
2022-07-31T03:26:18.354Z,3.63
2022-07-31T03:28:47.131Z,3.17
2022-07-31T03:31:17.755Z,3.58
2022-07-31T03:33:46.529Z,4.05
2022-07-31T03:36:16.669Z,3.45
2022-07-31T03:38:50.138Z,3.63
2022-07-31T03:41:48.604Z,3.40
2022-07-31T03:44:18.408Z,3.55
2022-07-31T03:46:49.019Z,3.60
2022-07-31T03:49:17.779Z,3.25
2022-07-31T03:51:46.641Z,3.10
2022-07-31T03:54:15.502Z,3.70
2022-07-31T03:56:45.891Z,3.22
2022-07-31T03:59:16.926Z,3.35
2022-07-31T04:01:57.759Z,3.60
2022-07-31T04:04:55.134Z,3.20
2022-07-31T04:07:23.795Z,3.08
2022-07-31T04:09:52.443Z,3.10
2022-07-31T04:12:21.576Z,3.40
2022-07-31T04:14:50.201Z,3.25
2022-07-31T04:17:20.359Z,3.50
2022-07-31T04:19:49.619Z,3.00
2022-07-31T04:22:19.669Z,3.42
2022-07-31T04:24:49.020Z,3.58
2022-07-31T04:27:48.831Z,3.60
2022-07-31T04:30:18.734Z,3.20
2022-07-31T04:32:48.652Z,3.30
2022-07-31T04:35:22.505Z,3.13
2022-07-31T04:37:52.539Z,3.35
2022-07-31T04:42:51.640Z,3.13
2022-07-31T04:45:20.300Z,3.00
2022-07-31T04:47:49.249Z,3.03
2022-07-31T04:50:18.880Z,3.00
2022-07-31T04:52:58.759Z,2.90
2022-07-31T04:55:31.109Z,2.95
2022-07-31T04:58:00.249Z,2.60
2022-07-31T05:00:29.044Z,3.00
2022-07-31T05:02:57.999Z,2.92
2022-07-31T05:05:26.708Z,3.00
2022-07-31T05:07:55.404Z,3.22
2022-07-31T05:10:43.864Z,3.22
2022-07-31T05:13:12.639Z,3.08
2022-07-31T05:15:44.809Z,2.83
2022-07-31T05:18:13.529Z,2.90
2022-07-31T05:21:00.859Z,2.85
2022-07-31T05:23:38.726Z,3.20
2022-07-31T05:26:31.862Z,3.33
2022-07-31T05:29:02.863Z,3.22
2022-07-31T05:31:31.954Z,3.33
2022-07-31T05:34:00.602Z,3.05
2022-07-31T05:36:29.259Z,3.15
2022-07-31T05:38:58.591Z,3.17
2022-07-31T05:41:34.587Z,3.30
2022-07-31T05:44:25.045Z,3.20
2022-07-31T05:49:24.104Z,2.90
2022-07-31T05:51:55.136Z,3.33
2022-07-31T05:54:24.001Z,2.90
2022-07-31T05:57:33.033Z,3.50
2022-07-31T06:00:03.896Z,3.40
2022-07-31T06:02:40.360Z,3.20
2022-07-31T06:05:37.999Z,3.55
2022-07-31T06:08:06.892Z,3.20
2022-07-31T06:10:42.451Z,3.13
2022-07-31T06:13:12.603Z,3.40
2022-07-31T06:15:42.294Z,3.25
2022-07-31T06:18:17.754Z,3.30
2022-07-31T06:20:46.493Z,3.15
2022-07-31T06:23:27.840Z,3.35
2022-07-31T06:26:07.464Z,3.45
2022-07-31T06:28:48.452Z,2.95
2022-07-31T06:33:48.183Z,4.68
2022-07-31T06:36:18.067Z,4.00
2022-07-31T06:38:58.019Z,3.30
2022-07-31T06:41:48.249Z,3.45
2022-07-31T06:44:34.010Z,3.20
2022-07-31T06:47:16.229Z,3.55
2022-07-31T06:49:54.157Z,3.70
2022-07-31T06:52:25.340Z,3.65
2022-07-31T06:54:54.768Z,3.20
2022-07-31T06:57:23.497Z,3.35
2022-07-31T06:59:53.628Z,2.92
2022-07-31T07:02:22.339Z,3.22
2022-07-31T07:04:57.821Z,3.03
2022-07-31T07:07:36.338Z,3.50
2022-07-31T07:12:57.309Z,2.85
2022-07-31T07:15:27.564Z,2.90
2022-07-31T07:17:56.161Z,2.92
2022-07-31T07:20:35.781Z,2.92
2022-07-31T07:23:04.375Z,3.33
2022-07-31T07:25:46.690Z,2.75
2022-07-31T07:28:30.549Z,3.40
2022-07-31T07:31:02.911Z,2.67
2022-07-31T07:33:41.061Z,2.80
2022-07-31T07:36:23.075Z,3.13
2022-07-31T07:39:02.643Z,2.88
2022-07-31T07:41:33.352Z,2.95
2022-07-31T07:44:02.851Z,3.15
2022-07-31T07:46:33.827Z,2.95
2022-07-31T07:49:04.695Z,2.95
2022-07-31T07:51:59.553Z,2.83
2022-07-31T07:54:42.815Z,3.00
2022-07-31T08:00:50.133Z,2.95
2022-07-31T08:03:48.928Z,2.97
2022-07-31T08:06:08.867Z,2.70
2022-07-31T08:08:38.804Z,2.67
2022-07-31T08:11:25.759Z,2.63
2022-07-31T08:14:03.226Z,2.90
2022-07-31T08:17:00.908Z,2.70
2022-07-31T08:19:30.922Z,2.40
2022-07-31T08:21:59.651Z,3.13
2022-07-31T08:24:29.439Z,2.83
2022-07-31T08:27:15.461Z,2.63
2022-07-31T08:29:45.388Z,3.15
2022-07-31T08:32:19.276Z,2.53
2022-07-31T08:35:08.560Z,2.60
2022-07-31T08:37:52.228Z,3.92
2022-07-31T08:40:27.177Z,2.83
2022-07-31T08:42:56.743Z,2.67
2022-07-31T08:45:30.408Z,2.65
2022-07-31T08:48:11.242Z,2.97
2022-07-31T08:50:53.642Z,2.88
2022-07-31T08:53:44.275Z,2.60
2022-07-31T08:56:18.733Z,2.50
2022-07-31T08:58:47.314Z,3.00
2022-07-31T09:01:16.127Z,2.80
2022-07-31T09:03:44.773Z,2.92
2022-07-31T09:06:16.786Z,2.95
2022-07-31T09:08:45.418Z,2.65
2022-07-31T09:11:14.943Z,2.78
2022-07-31T09:14:02.711Z,3.20
2022-07-31T09:16:46.919Z,2.80
2022-07-31T09:19:53.772Z,2.88
2022-07-31T09:22:25.435Z,2.90
2022-07-31T09:24:56.281Z,2.60
2022-07-31T09:27:29.983Z,3.15
2022-07-31T09:29:59.216Z,2.67
2022-07-31T09:32:47.790Z,2.70
2022-07-31T09:35:26.093Z,3.20
2022-07-31T09:37:56.135Z,2.80
2022-07-31T09:40:57.003Z,2.70
2022-07-31T09:44:10.395Z,2.67
2022-07-31T09:46:43.425Z,2.40
2022-07-31T09:49:12.341Z,2.70
2022-07-31T09:51:43.097Z,2.80
2022-07-31T09:54:23.080Z,2.60
2022-07-31T09:57:15.248Z,2.83
2022-07-31T09:59:51.628Z,2.80
2022-07-31T10:02:20.772Z,3.00
2022-07-31T10:04:52.415Z,2.75
2022-07-31T10:07:31.632Z,2.78
2022-07-31T10:10:24.248Z,3.13
2022-07-31T10:13:02.100Z,2.60
2022-07-31T10:15:31.654Z,2.97
2022-07-31T10:18:36.488Z,2.45
2022-07-31T10:21:37.785Z,2.33
2022-07-31T10:24:13.013Z,2.22
2022-07-31T10:27:00.185Z,2.85
2022-07-31T10:29:32.543Z,2.65
2022-07-31T10:32:03.930Z,2.60
2022-07-31T10:34:35.158Z,2.85
2022-07-31T10:37:24.520Z,2.60
2022-07-31T10:40:22.030Z,2.50
2022-07-31T10:43:03.208Z,2.47
2022-07-31T10:45:32.165Z,2.70
2022-07-31T10:48:29.914Z,2.92
2022-07-31T10:51:09.639Z,2.78
2022-07-31T10:53:57.679Z,2.80
2022-07-31T10:56:47.532Z,2.53
2022-07-31T10:59:36.436Z,2.63
2022-07-31T11:02:30.099Z,2.20
2022-07-31T11:05:13.251Z,2.47
2022-07-31T11:08:02.569Z,2.40
2022-07-31T11:10:51.440Z,2.80
2022-07-31T11:13:46.333Z,2.47
2022-07-31T11:16:24.948Z,2.30
2022-07-31T11:19:13.460Z,2.47
2022-07-31T11:21:43.017Z,3.05
2022-07-31T11:24:15.560Z,2.20
2022-07-31T11:26:44.793Z,2.20
2022-07-31T11:30:02.081Z,2.33
2022-07-31T11:32:14.114Z,2.28
2022-07-31T11:34:49.605Z,2.50
2022-07-31T11:37:20.544Z,2.35
2022-07-31T11:39:52.457Z,2.47
2022-07-31T11:42:25.353Z,2.38
2022-07-31T11:45:10.871Z,2.40
2022-07-31T11:48:13.535Z,2.60
2022-07-31T11:50:32.374Z,2.40
2022-07-31T11:53:04.647Z,2.40
2022-07-31T11:55:33.406Z,2.25
2022-07-31T11:58:02.141Z,2.00
2022-07-31T12:00:30.763Z,2.50
2022-07-31T12:03:00.893Z,2.30
2022-07-31T12:05:39.052Z,2.42
2022-07-31T12:08:09.261Z,2.47
2022-07-31T12:10:38.243Z,2.60
2022-07-31T12:13:06.830Z,2.35
2022-07-31T12:15:35.569Z,2.25
2022-07-31T12:18:06.521Z,2.22
2022-07-31T12:20:36.877Z,2.60
2022-07-31T12:23:07.278Z,2.77
2022-07-31T12:25:55.884Z,2.55
2022-07-31T12:28:24.543Z,2.47
2022-07-31T12:31:00.338Z,2.28
2022-07-31T12:33:30.407Z,2.38
2022-07-31T12:35:59.003Z,2.50
2022-07-31T12:38:47.903Z,2.67
2022-07-31T12:41:16.890Z,2.38
2022-07-31T12:43:52.056Z,2.80
2022-07-31T12:46:24.781Z,2.40
2022-07-31T12:48:54.939Z,2.20
2022-07-31T12:51:44.901Z,2.60
2022-07-31T12:54:12.293Z,2.50
2022-07-31T12:56:41.540Z,2.65
2022-07-31T12:59:10.614Z,2.25
2022-07-31T13:01:39.518Z,2.67
2022-07-31T13:04:19.183Z,2.88
2022-07-31T13:06:51.380Z,2.55
2022-07-31T13:09:20.970Z,2.83
2022-07-31T13:11:53.230Z,2.50
2022-07-31T13:14:25.035Z,2.30
2022-07-31T13:16:54.985Z,2.20
2022-07-31T13:19:25.185Z,2.55
2022-07-31T13:21:56.838Z,2.70
2022-07-31T13:24:26.409Z,2.22
2022-07-31T13:26:55.015Z,2.40
2022-07-31T13:29:23.677Z,2.25
2022-07-31T13:31:52.347Z,2.50
2022-07-31T13:34:20.964Z,2.15
2022-07-31T13:36:50.971Z,2.40
2022-07-31T13:39:19.531Z,2.13
2022-07-31T13:41:48.177Z,2.40
2022-07-31T13:44:17.043Z,2.00
2022-07-31T13:46:46.590Z,1.90
2022-07-31T13:49:15.745Z,2.10
2022-07-31T13:51:44.445Z,2.10
2022-07-31T13:54:14.656Z,2.10
2022-07-31T13:56:43.766Z,2.20
2022-07-31T13:59:13.807Z,2.15
2022-07-31T14:02:04.134Z,1.80
2022-07-31T14:04:32.523Z,1.88
2022-07-31T14:07:07.881Z,2.10
2022-07-31T14:09:38.645Z,2.35
2022-07-31T14:12:15.700Z,2.22
2022-07-31T14:14:44.292Z,2.30
2022-07-31T14:17:12.969Z,2.38
2022-07-31T14:19:44.465Z,2.00
2022-07-31T14:24:50.738Z,2.17
2022-07-31T14:27:20.630Z,2.20
2022-07-31T14:29:49.321Z,1.80
2022-07-31T14:32:19.412Z,1.90
2022-07-31T14:34:48.168Z,1.95
2022-07-31T14:37:16.810Z,1.92
2022-07-31T14:39:46.794Z,1.92
2022-07-31T14:42:15.349Z,2.10
2022-07-31T14:44:51.286Z,2.30
2022-07-31T14:47:19.920Z,2.15
2022-07-31T14:50:06.923Z,2.10
2022-07-31T14:52:37.208Z,2.35
2022-07-31T14:55:07.814Z,2.20
2022-07-31T14:57:36.527Z,2.15
2022-07-31T15:00:10.346Z,2.17
2022-07-31T15:02:40.636Z,1.90
2022-07-31T15:06:41.824Z,2.10
2022-07-31T15:07:58.508Z,1.90
2022-07-31T15:10:28.631Z,2.17
2022-07-31T15:12:58.227Z,2.10
2022-07-31T15:15:28.459Z,2.10
2022-07-31T15:17:57.355Z,1.85
2022-07-31T15:20:32.710Z,2.40
2022-07-31T15:23:02.450Z,2.00
2022-07-31T15:25:32.594Z,2.00
2022-07-31T15:28:01.212Z,2.20
2022-07-31T15:30:29.880Z,2.00
2022-07-31T15:32:58.644Z,2.03
2022-07-31T15:35:27.367Z,2.33
2022-07-31T15:37:56.202Z,2.35
2022-07-31T15:40:24.768Z,2.10
2022-07-31T15:42:54.853Z,2.10
2022-07-31T15:45:23.456Z,2.33
2022-07-31T15:47:52.089Z,2.05
2022-07-31T15:50:21.647Z,2.08
2022-07-31T15:52:51.426Z,2.15
2022-07-31T15:55:20.356Z,2.00
2022-07-31T15:57:49.110Z,2.08
2022-07-31T16:00:19.574Z,2.20
2022-07-31T16:02:48.252Z,2.20
2022-07-31T16:05:21.543Z,2.03
2022-07-31T16:08:32.081Z,2.35
2022-07-31T16:10:54.988Z,2.20
2022-07-31T16:13:24.047Z,2.22
2022-07-31T16:15:54.132Z,2.38
2022-07-31T16:18:22.849Z,2.20
2022-07-31T16:20:51.656Z,2.25
2022-07-31T16:23:20.297Z,2.17
2022-07-31T16:25:48.930Z,2.33
2022-07-31T16:28:17.484Z,2.25
2022-07-31T16:30:46.753Z,2.10
2022-07-31T16:33:16.820Z,1.98
2022-07-31T16:35:45.406Z,2.28
2022-07-31T16:38:14.011Z,2.28
2022-07-31T16:40:42.753Z,21.23
2022-07-31T16:43:50.996Z,70.63
2022-07-31T16:46:00.083Z,74.15
2022-07-31T16:48:30.135Z,79.70
2022-07-31T16:50:58.733Z,100.15
2022-07-31T16:54:11.013Z,137.00
2022-07-31T16:56:17.099Z,91.22
2022-07-31T16:58:45.766Z,69.40
2022-07-31T17:01:57.079Z,83.05
2022-07-31T17:04:04.836Z,78.93
2022-07-31T17:06:35.959Z,61.10
2022-07-31T17:09:16.073Z,58.15
2022-07-31T17:11:47.647Z,41.30
2022-07-31T17:14:16.366Z,43.70
2022-07-31T17:16:48.037Z,43.70
2022-07-31T17:19:36.724Z,46.70
2022-07-31T17:22:07.969Z,41.50
2022-07-31T17:24:37.895Z,40.95
2022-07-31T17:27:08.064Z,35.95
2022-07-31T17:29:37.276Z,30.02
2022-07-31T17:32:06.288Z,21.23
2022-07-31T17:34:36.631Z,27.50
2022-07-31T17:37:05.514Z,21.50
2022-07-31T17:39:35.258Z,19.17
2022-07-31T17:42:03.969Z,15.75
2022-07-31T17:44:32.703Z,15.90
2022-07-31T17:47:03.746Z,14.32
2022-07-31T17:49:34.313Z,15.98
2022-07-31T17:52:04.381Z,14.18
2022-07-31T17:54:33.154Z,12.70
2022-07-31T17:57:01.842Z,14.60
2022-07-31T17:59:30.757Z,9.32
2022-07-31T18:02:00.837Z,11.10
2022-07-31T18:04:30.055Z,6.95
2022-07-31T18:06:59.005Z,7.93
2022-07-31T18:09:29.420Z,7.93
2022-07-31T18:11:58.564Z,7.10
2022-07-31T18:14:27.195Z,7.60
2022-07-31T18:16:56.066Z,6.63
2022-07-31T18:19:24.866Z,9.05
2022-07-31T18:21:53.987Z,36.85
2022-07-31T18:24:23.039Z,76.35
2022-07-31T18:26:55.153Z,138.65
2022-07-31T18:29:23.990Z,149.35
2022-07-31T18:31:52.591Z,127.38
2022-07-31T18:34:21.240Z,102.22
2022-07-31T18:36:54.559Z,205.25
2022-07-31T18:39:23.381Z,188.57
2022-07-31T18:41:53.686Z,257.73
2022-07-31T18:44:22.596Z,203.20
2022-07-31T18:46:51.254Z,200.35
2022-07-31T18:51:00.844Z,193.18
2022-07-31T18:52:09.543Z,192.65
2022-07-31T18:54:38.301Z,163.70
2022-07-31T18:57:08.895Z,227.18
2022-07-31T18:59:37.885Z,231.90
2022-07-31T19:02:08.620Z,263.38
2022-07-31T19:04:40.376Z,272.92
2022-07-31T19:07:08.993Z,338.10
2022-07-31T19:09:37.672Z,246.63
2022-07-31T19:12:08.931Z,200.55
2022-07-31T19:14:37.803Z,172.95
2022-07-31T19:17:08.642Z,180.32
2022-07-31T19:19:52.615Z,152.10
2022-07-31T19:22:23.628Z,162.18
2022-07-31T19:24:52.475Z,156.75
2022-07-31T19:27:46.812Z,145.63
2022-07-31T19:30:13.745Z,135.50
2022-07-31T19:32:42.429Z,130.43
2022-07-31T19:35:11.418Z,121.63
2022-07-31T19:37:40.025Z,123.53
2022-07-31T19:40:09.173Z,117.45
2022-07-31T19:42:39.466Z,108.10
2022-07-31T19:45:08.512Z,108.43
2022-07-31T19:47:37.223Z,105.45
2022-07-31T19:50:07.455Z,95.47
2022-07-31T19:52:36.220Z,92.38
2022-07-31T19:55:04.850Z,85.35
2022-07-31T19:57:33.666Z,79.53
2022-07-31T20:00:03.849Z,79.88
2022-07-31T20:02:32.911Z,77.57
2022-07-31T20:05:01.453Z,67.43
2022-07-31T20:07:32.991Z,69.47
2022-07-31T20:10:02.232Z,63.75
2022-07-31T20:12:30.966Z,64.97
2022-07-31T20:14:59.612Z,53.03
2022-07-31T20:17:29.602Z,44.47
2022-07-31T20:20:15.855Z,44.08
2022-07-31T20:22:45.016Z,41.50
2022-07-31T20:25:19.891Z,44.60
2022-07-31T20:27:49.546Z,43.03
2022-07-31T20:30:21.840Z,36.58
2022-07-31T20:32:52.897Z,26.00
2022-07-31T20:35:29.103Z,26.80
2022-07-31T20:38:15.893Z,29.42
2022-07-31T20:40:53.897Z,29.00
2022-07-31T20:43:24.486Z,29.23
2022-07-31T20:45:53.436Z,29.83
2022-07-31T20:48:24.683Z,28.13
2022-07-31T20:50:53.580Z,27.98
2022-07-31T20:53:23.095Z,22.98
2022-07-31T20:55:51.816Z,23.77
2022-07-31T20:58:20.561Z,23.45
2022-07-31T21:00:49.293Z,23.20
2022-07-31T21:03:18.308Z,25.63
2022-07-31T21:05:48.554Z,24.15
2022-07-31T21:08:17.153Z,22.23
2022-07-31T21:10:46.942Z,39.10
2022-07-31T21:13:15.591Z,138.07
2022-07-31T21:15:45.477Z,196.10
2022-07-31T21:18:15.264Z,161.77
2022-07-31T21:20:51.977Z,175.23
2022-07-31T21:23:24.451Z,130.50
2022-07-31T21:25:53.843Z,122.47
2022-07-31T21:28:22.981Z,244.70
2022-07-31T21:30:53.581Z,249.55
2022-07-31T21:33:22.478Z,253.95
2022-07-31T21:35:51.161Z,233.07
2022-07-31T21:38:20.483Z,236.68
2022-07-31T21:40:51.081Z,214.95
2022-07-31T21:43:22.138Z,197.35
2022-07-31T21:45:57.552Z,185.35
2022-07-31T21:48:31.083Z,175.30
2022-07-31T21:51:00.137Z,158.35
2022-07-31T21:53:28.844Z,143.88
2022-07-31T21:55:59.368Z,134.00
2022-07-31T21:58:27.974Z,121.47
2022-07-31T22:00:56.623Z,129.70
2022-07-31T22:03:25.816Z,137.05
2022-07-31T22:06:12.171Z,117.05
2022-07-31T22:08:40.829Z,115.65
2022-07-31T22:11:10.889Z,113.22
2022-07-31T22:13:39.883Z,103.80
2022-07-31T22:16:08.647Z,79.47
2022-07-31T22:18:37.295Z,81.53
2022-07-31T22:21:07.517Z,84.57
2022-07-31T22:23:36.954Z,92.28
2022-07-31T22:26:05.988Z,72.68
2022-07-31T22:28:36.568Z,67.40
2022-07-31T22:31:05.536Z,67.65
2022-07-31T22:33:34.204Z,52.42
2022-07-31T22:36:07.095Z,58.97
2022-07-31T22:38:37.991Z,46.10
2022-07-31T22:41:07.421Z,43.73
2022-07-31T22:44:13.648Z,37.42
2022-07-31T22:46:26.863Z,33.15
2022-07-31T22:48:56.501Z,30.17
2022-07-31T22:51:25.216Z,31.42
2022-07-31T22:53:53.796Z,27.17
2022-07-31T22:56:22.455Z,26.48
2022-07-31T22:58:52.523Z,23.67
2022-07-31T23:01:21.152Z,25.85
2022-07-31T23:03:49.781Z,25.52
2022-07-31T23:06:31.317Z,18.50
2022-07-31T23:09:01.349Z,21.38
2022-07-31T23:11:30.142Z,17.80
2022-07-31T23:14:00.484Z,18.60
2022-07-31T23:16:29.194Z,15.85
2022-07-31T23:18:57.885Z,16.45
2022-07-31T23:21:26.500Z,19.70
2022-07-31T23:23:55.126Z,14.60
2022-07-31T23:26:25.035Z,12.82
2022-07-31T23:28:54.349Z,12.43
2022-07-31T23:31:24.652Z,10.45
2022-07-31T23:33:53.611Z,10.80
2022-07-31T23:36:22.345Z,10.43
2022-07-31T23:38:51.334Z,8.85
2022-07-31T23:41:40.942Z,7.07
2022-07-31T23:44:09.829Z,7.40
2022-07-31T23:46:40.862Z,7.47
2022-07-31T23:49:10.079Z,6.03
2022-07-31T23:51:38.801Z,5.78
2022-07-31T23:54:08.000Z,6.07
2022-07-31T23:56:36.624Z,5.50
2022-07-31T23:59:05.316Z,5.30
